sensor_id;sensor_type;location;lat;lon;timestamp;P1;durP1;ratioP1;P2;durP2;ratioP2
21458;SDS011;10891;49.350;19.386;2023-06-22T00:01:16;12.63;;;7.68;;
21458;SDS011;10891;49.350;19.386;2023-06-22T00:03:43;10.95;;;6.70;;
21458;SDS011;10891;49.350;19.386;2023-06-22T00:06:10;14.00;;;6.80;;
21458;SDS011;10891;49.350;19.386;2023-06-22T00:08:39;11.23;;;6.53;;
21458;SDS011;10891;49.350;19.386;2023-06-22T00:11:06;8.13;;;6.53;;
21458;SDS011;10891;49.350;19.386;2023-06-22T00:13:33;9.40;;;6.45;;
21458;SDS011;10891;49.350;19.386;2023-06-22T00:16:00;10.95;;;6.72;;
21458;SDS011;10891;49.350;19.386;2023-06-22T00:18:27;11.98;;;6.68;;
21458;SDS011;10891;49.350;19.386;2023-06-22T00:20:55;13.40;;;7.35;;
21458;SDS011;10891;49.350;19.386;2023-06-22T00:23:23;14.57;;;7.72;;
21458;SDS011;10891;49.350;19.386;2023-06-22T00:25:52;14.40;;;6.78;;
21458;SDS011;10891;49.350;19.386;2023-06-22T00:28:19;12.77;;;7.25;;
21458;SDS011;10891;49.350;19.386;2023-06-22T00:30:46;13.80;;;7.85;;
21458;SDS011;10891;49.350;19.386;2023-06-22T00:33:14;15.38;;;7.32;;
21458;SDS011;10891;49.350;19.386;2023-06-22T00:35:41;12.50;;;7.35;;
21458;SDS011;10891;49.350;19.386;2023-06-22T00:38:08;14.63;;;8.15;;
21458;SDS011;10891;49.350;19.386;2023-06-22T00:40:35;10.38;;;7.57;;
21458;SDS011;10891;49.350;19.386;2023-06-22T00:43:03;13.85;;;7.97;;
21458;SDS011;10891;49.350;19.386;2023-06-22T00:45:31;12.18;;;7.80;;
21458;SDS011;10891;49.350;19.386;2023-06-22T00:47:58;10.32;;;7.40;;
21458;SDS011;10891;49.350;19.386;2023-06-22T00:50:26;14.45;;;7.82;;
21458;SDS011;10891;49.350;19.386;2023-06-22T00:52:59;12.65;;;7.53;;
21458;SDS011;10891;49.350;19.386;2023-06-22T00:55:27;12.90;;;7.18;;
21458;SDS011;10891;49.350;19.386;2023-06-22T00:57:55;14.13;;;7.85;;
21458;SDS011;10891;49.350;19.386;2023-06-22T01:00:24;16.00;;;8.25;;
21458;SDS011;10891;49.350;19.386;2023-06-22T01:02:51;12.65;;;7.68;;
21458;SDS011;10891;49.350;19.386;2023-06-22T01:05:19;9.25;;;6.88;;
21458;SDS011;10891;49.350;19.386;2023-06-22T01:07:52;10.60;;;6.88;;
21458;SDS011;10891;49.350;19.386;2023-06-22T01:10:31;10.00;;;7.40;;
21458;SDS011;10891;49.350;19.386;2023-06-22T01:13:06;11.52;;;7.28;;
21458;SDS011;10891;49.350;19.386;2023-06-22T01:15:42;12.20;;;7.05;;
21458;SDS011;10891;49.350;19.386;2023-06-22T01:18:14;12.65;;;7.45;;
21458;SDS011;10891;49.350;19.386;2023-06-22T01:20:43;10.88;;;7.00;;
21458;SDS011;10891;49.350;19.386;2023-06-22T01:23:11;12.63;;;7.40;;
21458;SDS011;10891;49.350;19.386;2023-06-22T01:25:48;9.63;;;7.30;;
21458;SDS011;10891;49.350;19.386;2023-06-22T01:28:32;10.15;;;7.25;;
21458;SDS011;10891;49.350;19.386;2023-06-22T01:31:08;13.32;;;7.55;;
21458;SDS011;10891;49.350;19.386;2023-06-22T01:33:39;15.55;;;6.40;;
21458;SDS011;10891;49.350;19.386;2023-06-22T01:36:09;12.00;;;6.80;;
21458;SDS011;10891;49.350;19.386;2023-06-22T01:38:36;10.88;;;6.65;;
21458;SDS011;10891;49.350;19.386;2023-06-22T01:41:04;10.48;;;6.85;;
21458;SDS011;10891;49.350;19.386;2023-06-22T01:43:33;11.27;;;6.78;;
21458;SDS011;10891;49.350;19.386;2023-06-22T01:46:01;10.35;;;6.40;;
21458;SDS011;10891;49.350;19.386;2023-06-22T01:48:29;11.85;;;6.65;;
21458;SDS011;10891;49.350;19.386;2023-06-22T01:50:56;10.50;;;6.60;;
21458;SDS011;10891;49.350;19.386;2023-06-22T01:53:23;9.68;;;6.10;;
21458;SDS011;10891;49.350;19.386;2023-06-22T01:55:51;11.45;;;6.72;;
21458;SDS011;10891;49.350;19.386;2023-06-22T01:58:18;16.90;;;6.75;;
21458;SDS011;10891;49.350;19.386;2023-06-22T02:00:51;11.75;;;6.63;;
21458;SDS011;10891;49.350;19.386;2023-06-22T02:03:22;12.20;;;6.78;;
21458;SDS011;10891;49.350;19.386;2023-06-22T02:05:53;10.95;;;6.75;;
21458;SDS011;10891;49.350;19.386;2023-06-22T02:08:24;8.10;;;6.78;;
21458;SDS011;10891;49.350;19.386;2023-06-22T02:10:55;12.60;;;6.65;;
21458;SDS011;10891;49.350;19.386;2023-06-22T02:13:25;13.07;;;6.72;;
21458;SDS011;10891;49.350;19.386;2023-06-22T02:15:55;10.65;;;6.63;;
21458;SDS011;10891;49.350;19.386;2023-06-22T02:18:22;10.18;;;6.07;;
21458;SDS011;10891;49.350;19.386;2023-06-22T02:20:50;10.10;;;6.03;;
21458;SDS011;10891;49.350;19.386;2023-06-22T02:23:17;11.77;;;6.68;;
21458;SDS011;10891;49.350;19.386;2023-06-22T02:25:44;17.40;;;6.78;;
21458;SDS011;10891;49.350;19.386;2023-06-22T02:28:11;13.50;;;6.65;;
21458;SDS011;10891;49.350;19.386;2023-06-22T02:30:38;18.58;;;6.63;;
21458;SDS011;10891;49.350;19.386;2023-06-22T02:33:06;10.65;;;5.80;;
21458;SDS011;10891;49.350;19.386;2023-06-22T02:35:33;9.80;;;6.82;;
21458;SDS011;10891;49.350;19.386;2023-06-22T02:38:01;14.10;;;6.93;;
21458;SDS011;10891;49.350;19.386;2023-06-22T02:40:29;13.00;;;7.15;;
21458;SDS011;10891;49.350;19.386;2023-06-22T02:42:56;15.00;;;7.63;;
21458;SDS011;10891;49.350;19.386;2023-06-22T02:45:26;9.25;;;6.65;;
21458;SDS011;10891;49.350;19.386;2023-06-22T02:47:53;9.70;;;6.60;;
21458;SDS011;10891;49.350;19.386;2023-06-22T02:50:22;16.40;;;6.72;;
21458;SDS011;10891;49.350;19.386;2023-06-22T02:52:49;7.93;;;6.05;;
21458;SDS011;10891;49.350;19.386;2023-06-22T02:55:16;15.07;;;7.20;;
21458;SDS011;10891;49.350;19.386;2023-06-22T02:57:43;13.38;;;7.00;;
21458;SDS011;10891;49.350;19.386;2023-06-22T03:00:12;11.75;;;6.05;;
21458;SDS011;10891;49.350;19.386;2023-06-22T03:02:42;10.20;;;6.03;;
21458;SDS011;10891;49.350;19.386;2023-06-22T03:05:10;11.15;;;6.25;;
21458;SDS011;10891;49.350;19.386;2023-06-22T03:07:40;7.70;;;5.55;;
21458;SDS011;10891;49.350;19.386;2023-06-22T03:10:07;15.55;;;6.20;;
21458;SDS011;10891;49.350;19.386;2023-06-22T03:12:35;12.63;;;6.28;;
21458;SDS011;10891;49.350;19.386;2023-06-22T03:15:03;9.40;;;5.97;;
21458;SDS011;10891;49.350;19.386;2023-06-22T03:17:31;10.65;;;5.80;;
21458;SDS011;10891;49.350;19.386;2023-06-22T03:19:57;8.73;;;5.72;;
21458;SDS011;10891;49.350;19.386;2023-06-22T03:22:24;9.40;;;5.93;;
21458;SDS011;10891;49.350;19.386;2023-06-22T03:24:53;12.50;;;5.30;;
21458;SDS011;10891;49.350;19.386;2023-06-22T03:27:20;10.50;;;5.80;;
21458;SDS011;10891;49.350;19.386;2023-06-22T03:29:47;15.80;;;6.32;;
21458;SDS011;10891;49.350;19.386;2023-06-22T03:32:14;12.73;;;6.03;;
21458;SDS011;10891;49.350;19.386;2023-06-22T03:34:41;18.33;;;5.00;;
21458;SDS011;10891;49.350;19.386;2023-06-22T03:37:12;11.32;;;5.50;;
21458;SDS011;10891;49.350;19.386;2023-06-22T03:39:40;11.77;;;4.95;;
21458;SDS011;10891;49.350;19.386;2023-06-22T03:42:09;12.38;;;5.85;;
21458;SDS011;10891;49.350;19.386;2023-06-22T03:44:36;10.75;;;5.38;;
21458;SDS011;10891;49.350;19.386;2023-06-22T03:47:03;10.80;;;5.35;;
21458;SDS011;10891;49.350;19.386;2023-06-22T03:49:32;14.02;;;5.00;;
21458;SDS011;10891;49.350;19.386;2023-06-22T03:52:00;11.85;;;5.35;;
21458;SDS011;10891;49.350;19.386;2023-06-22T03:54:28;10.95;;;4.70;;
21458;SDS011;10891;49.350;19.386;2023-06-22T03:56:56;13.52;;;5.15;;
21458;SDS011;10891;49.350;19.386;2023-06-22T03:59:24;10.40;;;4.03;;
21458;SDS011;10891;49.350;19.386;2023-06-22T04:01:51;8.05;;;4.57;;
21458;SDS011;10891;49.350;19.386;2023-06-22T04:04:18;9.73;;;5.15;;
21458;SDS011;10891;49.350;19.386;2023-06-22T04:06:45;10.30;;;4.95;;
21458;SDS011;10891;49.350;19.386;2023-06-22T04:09:12;8.20;;;4.10;;
21458;SDS011;10891;49.350;19.386;2023-06-22T04:11:39;5.68;;;3.42;;
21458;SDS011;10891;49.350;19.386;2023-06-22T04:14:06;12.02;;;4.00;;
21458;SDS011;10891;49.350;19.386;2023-06-22T04:16:34;8.02;;;4.10;;
21458;SDS011;10891;49.350;19.386;2023-06-22T04:19:01;10.93;;;4.68;;
21458;SDS011;10891;49.350;19.386;2023-06-22T04:21:28;7.35;;;4.30;;
21458;SDS011;10891;49.350;19.386;2023-06-22T04:23:55;13.82;;;4.53;;
21458;SDS011;10891;49.350;19.386;2023-06-22T04:26:22;7.50;;;4.70;;
21458;SDS011;10891;49.350;19.386;2023-06-22T04:28:49;6.78;;;4.50;;
21458;SDS011;10891;49.350;19.386;2023-06-22T04:31:20;9.48;;;4.20;;
21458;SDS011;10891;49.350;19.386;2023-06-22T04:33:51;5.78;;;3.67;;
21458;SDS011;10891;49.350;19.386;2023-06-22T04:36:18;7.35;;;3.50;;
21458;SDS011;10891;49.350;19.386;2023-06-22T04:38:46;8.45;;;4.00;;
21458;SDS011;10891;49.350;19.386;2023-06-22T04:41:13;6.72;;;3.88;;
21458;SDS011;10891;49.350;19.386;2023-06-22T04:43:50;8.88;;;3.90;;
21458;SDS011;10891;49.350;19.386;2023-06-22T04:46:19;7.47;;;3.80;;
21458;SDS011;10891;49.350;19.386;2023-06-22T04:48:46;7.30;;;3.85;;
21458;SDS011;10891;49.350;19.386;2023-06-22T04:51:14;8.73;;;4.13;;
21458;SDS011;10891;49.350;19.386;2023-06-22T04:53:41;10.73;;;3.58;;
21458;SDS011;10891;49.350;19.386;2023-06-22T04:56:08;9.50;;;3.78;;
21458;SDS011;10891;49.350;19.386;2023-06-22T04:58:35;9.45;;;3.60;;
21458;SDS011;10891;49.350;19.386;2023-06-22T05:01:02;7.35;;;3.25;;
21458;SDS011;10891;49.350;19.386;2023-06-22T05:03:30;8.07;;;3.47;;
21458;SDS011;10891;49.350;19.386;2023-06-22T05:05:57;12.50;;;3.75;;
21458;SDS011;10891;49.350;19.386;2023-06-22T05:08:25;7.05;;;3.40;;
21458;SDS011;10891;49.350;19.386;2023-06-22T05:10:53;10.82;;;3.78;;
21458;SDS011;10891;49.350;19.386;2023-06-22T05:13:21;5.93;;;3.97;;
21458;SDS011;10891;49.350;19.386;2023-06-22T05:15:51;7.82;;;4.30;;
21458;SDS011;10891;49.350;19.386;2023-06-22T05:18:26;11.60;;;3.97;;
21458;SDS011;10891;49.350;19.386;2023-06-22T05:20:54;8.40;;;3.50;;
21458;SDS011;10891;49.350;19.386;2023-06-22T05:23:21;6.43;;;3.35;;
21458;SDS011;10891;49.350;19.386;2023-06-22T05:25:49;7.65;;;3.22;;
21458;SDS011;10891;49.350;19.386;2023-06-22T05:28:17;7.30;;;3.30;;
21458;SDS011;10891;49.350;19.386;2023-06-22T05:30:48;6.95;;;3.50;;
21458;SDS011;10891;49.350;19.386;2023-06-22T05:33:14;13.75;;;4.05;;
21458;SDS011;10891;49.350;19.386;2023-06-22T05:35:41;8.55;;;3.55;;
21458;SDS011;10891;49.350;19.386;2023-06-22T05:38:08;5.28;;;3.13;;
21458;SDS011;10891;49.350;19.386;2023-06-22T05:40:35;7.38;;;3.40;;
21458;SDS011;10891;49.350;19.386;2023-06-22T05:43:03;7.40;;;3.47;;
21458;SDS011;10891;49.350;19.386;2023-06-22T05:45:30;8.55;;;3.55;;
21458;SDS011;10891;49.350;19.386;2023-06-22T05:47:57;11.10;;;3.38;;
21458;SDS011;10891;49.350;19.386;2023-06-22T05:50:24;7.65;;;3.53;;
21458;SDS011;10891;49.350;19.386;2023-06-22T05:52:51;6.40;;;3.58;;
21458;SDS011;10891;49.350;19.386;2023-06-22T05:55:17;7.65;;;3.47;;
21458;SDS011;10891;49.350;19.386;2023-06-22T05:57:44;9.18;;;3.53;;
21458;SDS011;10891;49.350;19.386;2023-06-22T06:00:13;6.10;;;3.38;;
21458;SDS011;10891;49.350;19.386;2023-06-22T06:02:40;12.23;;;3.75;;
21458;SDS011;10891;49.350;19.386;2023-06-22T06:05:09;7.40;;;3.60;;
21458;SDS011;10891;49.350;19.386;2023-06-22T06:07:38;13.35;;;4.05;;
21458;SDS011;10891;49.350;19.386;2023-06-22T06:10:06;7.43;;;3.10;;
21458;SDS011;10891;49.350;19.386;2023-06-22T06:12:33;6.63;;;3.35;;
21458;SDS011;10891;49.350;19.386;2023-06-22T06:15:00;9.55;;;3.80;;
21458;SDS011;10891;49.350;19.386;2023-06-22T06:17:28;8.07;;;3.67;;
21458;SDS011;10891;49.350;19.386;2023-06-22T06:19:55;9.52;;;3.67;;
21458;SDS011;10891;49.350;19.386;2023-06-22T06:22:22;7.25;;;3.65;;
21458;SDS011;10891;49.350;19.386;2023-06-22T06:24:49;7.70;;;3.50;;
21458;SDS011;10891;49.350;19.386;2023-06-22T06:27:16;12.52;;;4.22;;
21458;SDS011;10891;49.350;19.386;2023-06-22T06:29:44;8.88;;;3.55;;
21458;SDS011;10891;49.350;19.386;2023-06-22T06:32:13;8.45;;;3.60;;
21458;SDS011;10891;49.350;19.386;2023-06-22T06:34:42;10.48;;;4.00;;
21458;SDS011;10891;49.350;19.386;2023-06-22T06:37:09;6.85;;;3.42;;
21458;SDS011;10891;49.350;19.386;2023-06-22T06:39:35;8.85;;;3.92;;
21458;SDS011;10891;49.350;19.386;2023-06-22T06:42:03;5.30;;;3.65;;
21458;SDS011;10891;49.350;19.386;2023-06-22T06:44:30;8.32;;;4.13;;
21458;SDS011;10891;49.350;19.386;2023-06-22T06:46:57;10.52;;;4.10;;
21458;SDS011;10891;49.350;19.386;2023-06-22T06:49:24;11.00;;;4.22;;
21458;SDS011;10891;49.350;19.386;2023-06-22T06:51:53;12.45;;;4.40;;
21458;SDS011;10891;49.350;19.386;2023-06-22T06:54:21;7.45;;;4.00;;
21458;SDS011;10891;49.350;19.386;2023-06-22T06:56:47;7.18;;;4.60;;
21458;SDS011;10891;49.350;19.386;2023-06-22T06:59:15;8.10;;;4.10;;
21458;SDS011;10891;49.350;19.386;2023-06-22T07:01:41;9.98;;;4.38;;
21458;SDS011;10891;49.350;19.386;2023-06-22T07:04:09;8.32;;;4.78;;
21458;SDS011;10891;49.350;19.386;2023-06-22T07:06:36;7.90;;;4.63;;
21458;SDS011;10891;49.350;19.386;2023-06-22T07:09:05;7.53;;;4.75;;
21458;SDS011;10891;49.350;19.386;2023-06-22T07:11:32;10.27;;;4.95;;
21458;SDS011;10891;49.350;19.386;2023-06-22T07:14:00;7.43;;;5.35;;
21458;SDS011;10891;49.350;19.386;2023-06-22T07:16:27;12.48;;;5.72;;
21458;SDS011;10891;49.350;19.386;2023-06-22T07:18:55;8.20;;;4.93;;
21458;SDS011;10891;49.350;19.386;2023-06-22T07:21:21;11.27;;;5.50;;
21458;SDS011;10891;49.350;19.386;2023-06-22T07:23:48;9.60;;;5.13;;
21458;SDS011;10891;49.350;19.386;2023-06-22T07:26:17;7.53;;;4.43;;
21458;SDS011;10891;49.350;19.386;2023-06-22T07:28:43;9.80;;;5.13;;
21458;SDS011;10891;49.350;19.386;2023-06-22T07:31:10;8.73;;;4.97;;
21458;SDS011;10891;49.350;19.386;2023-06-22T07:33:37;11.57;;;5.32;;
21458;SDS011;10891;49.350;19.386;2023-06-22T07:36:04;7.30;;;5.93;;
21458;SDS011;10891;49.350;19.386;2023-06-22T07:38:33;8.65;;;5.20;;
21458;SDS011;10891;49.350;19.386;2023-06-22T07:41:00;13.77;;;5.65;;
21458;SDS011;10891;49.350;19.386;2023-06-22T07:43:30;12.13;;;5.93;;
21458;SDS011;10891;49.350;19.386;2023-06-22T07:45:58;10.57;;;5.88;;
21458;SDS011;10891;49.350;19.386;2023-06-22T07:48:25;13.27;;;5.90;;
21458;SDS011;10891;49.350;19.386;2023-06-22T07:50:52;11.63;;;5.82;;
21458;SDS011;10891;49.350;19.386;2023-06-22T07:53:20;9.18;;;6.28;;
21458;SDS011;10891;49.350;19.386;2023-06-22T07:55:47;10.52;;;6.22;;
21458;SDS011;10891;49.350;19.386;2023-06-22T07:58:13;10.00;;;6.28;;
21458;SDS011;10891;49.350;19.386;2023-06-22T08:00:45;12.80;;;7.10;;
21458;SDS011;10891;49.350;19.386;2023-06-22T08:03:13;9.07;;;6.80;;
21458;SDS011;10891;49.350;19.386;2023-06-22T08:05:40;17.58;;;7.00;;
21458;SDS011;10891;49.350;19.386;2023-06-22T08:08:07;9.65;;;7.40;;
21458;SDS011;10891;49.350;19.386;2023-06-22T08:10:34;10.90;;;7.20;;
21458;SDS011;10891;49.350;19.386;2023-06-22T08:13:01;12.80;;;7.95;;
21458;SDS011;10891;49.350;19.386;2023-06-22T08:15:29;10.95;;;7.20;;
21458;SDS011;10891;49.350;19.386;2023-06-22T08:17:57;14.23;;;7.40;;
21458;SDS011;10891;49.350;19.386;2023-06-22T08:20:25;13.13;;;7.80;;
21458;SDS011;10891;49.350;19.386;2023-06-22T08:22:53;12.88;;;7.57;;
21458;SDS011;10891;49.350;19.386;2023-06-22T08:25:22;10.43;;;7.60;;
21458;SDS011;10891;49.350;19.386;2023-06-22T08:27:49;11.45;;;7.55;;
21458;SDS011;10891;49.350;19.386;2023-06-22T08:30:16;9.52;;;7.53;;
21458;SDS011;10891;49.350;19.386;2023-06-22T08:32:43;18.38;;;8.13;;
21458;SDS011;10891;49.350;19.386;2023-06-22T08:35:12;11.88;;;7.60;;
21458;SDS011;10891;49.350;19.386;2023-06-22T08:37:39;13.35;;;7.47;;
21458;SDS011;10891;49.350;19.386;2023-06-22T08:40:06;12.65;;;7.35;;
21458;SDS011;10891;49.350;19.386;2023-06-22T08:42:34;16.80;;;7.47;;
21458;SDS011;10891;49.350;19.386;2023-06-22T08:45:01;10.88;;;7.03;;
21458;SDS011;10891;49.350;19.386;2023-06-22T08:47:29;9.70;;;7.13;;
21458;SDS011;10891;49.350;19.386;2023-06-22T08:49:56;10.95;;;7.28;;
21458;SDS011;10891;49.350;19.386;2023-06-22T08:52:24;10.88;;;7.18;;
21458;SDS011;10891;49.350;19.386;2023-06-22T08:54:51;11.43;;;7.30;;
21458;SDS011;10891;49.350;19.386;2023-06-22T08:57:18;10.38;;;7.10;;
21458;SDS011;10891;49.350;19.386;2023-06-22T08:59:45;12.52;;;7.35;;
21458;SDS011;10891;49.350;19.386;2023-06-22T09:02:12;11.30;;;7.30;;
21458;SDS011;10891;49.350;19.386;2023-06-22T09:04:40;13.52;;;6.70;;
21458;SDS011;10891;49.350;19.386;2023-06-22T09:07:06;9.15;;;6.97;;
21458;SDS011;10891;49.350;19.386;2023-06-22T09:09:35;11.43;;;7.70;;
21458;SDS011;10891;49.350;19.386;2023-06-22T09:12:02;11.82;;;6.93;;
21458;SDS011;10891;49.350;19.386;2023-06-22T09:14:29;15.88;;;7.25;;
21458;SDS011;10891;49.350;19.386;2023-06-22T09:16:56;14.85;;;6.53;;
21458;SDS011;10891;49.350;19.386;2023-06-22T09:19:23;11.40;;;7.18;;
21458;SDS011;10891;49.350;19.386;2023-06-22T09:21:50;9.60;;;6.15;;
21458;SDS011;10891;49.350;19.386;2023-06-22T09:24:17;10.15;;;6.63;;
21458;SDS011;10891;49.350;19.386;2023-06-22T09:26:46;13.27;;;7.25;;
21458;SDS011;10891;49.350;19.386;2023-06-22T09:29:13;10.70;;;7.30;;
21458;SDS011;10891;49.350;19.386;2023-06-22T09:31:40;12.60;;;7.40;;
21458;SDS011;10891;49.350;19.386;2023-06-22T09:34:06;9.65;;;7.18;;
21458;SDS011;10891;49.350;19.386;2023-06-22T09:36:33;11.18;;;7.13;;
21458;SDS011;10891;49.350;19.386;2023-06-22T09:39:00;11.30;;;7.45;;
21458;SDS011;10891;49.350;19.386;2023-06-22T09:41:31;9.38;;;6.82;;
21458;SDS011;10891;49.350;19.386;2023-06-22T09:43:59;10.45;;;6.93;;
21458;SDS011;10891;49.350;19.386;2023-06-22T09:46:26;10.38;;;6.95;;
21458;SDS011;10891;49.350;19.386;2023-06-22T09:48:53;13.48;;;6.82;;
21458;SDS011;10891;49.350;19.386;2023-06-22T09:51:20;13.85;;;6.53;;
21458;SDS011;10891;49.350;19.386;2023-06-22T09:53:48;11.15;;;7.57;;
21458;SDS011;10891;49.350;19.386;2023-06-22T09:56:15;9.02;;;6.55;;
21458;SDS011;10891;49.350;19.386;2023-06-22T09:58:42;12.45;;;7.40;;
21458;SDS011;10891;49.350;19.386;2023-06-22T10:01:11;15.38;;;6.60;;
21458;SDS011;10891;49.350;19.386;2023-06-22T10:03:39;9.73;;;6.68;;
21458;SDS011;10891;49.350;19.386;2023-06-22T10:06:06;14.00;;;7.28;;
21458;SDS011;10891;49.350;19.386;2023-06-22T10:08:34;9.35;;;7.05;;
21458;SDS011;10891;49.350;19.386;2023-06-22T10:11:02;9.10;;;6.50;;
21458;SDS011;10891;49.350;19.386;2023-06-22T10:13:29;7.55;;;6.40;;
21458;SDS011;10891;49.350;19.386;2023-06-22T10:15:56;9.88;;;6.82;;
21458;SDS011;10891;49.350;19.386;2023-06-22T10:18:24;12.30;;;7.10;;
21458;SDS011;10891;49.350;19.386;2023-06-22T10:20:51;8.30;;;6.90;;
21458;SDS011;10891;49.350;19.386;2023-06-22T10:23:18;8.57;;;6.43;;
21458;SDS011;10891;49.350;19.386;2023-06-22T10:25:46;10.95;;;7.10;;
21458;SDS011;10891;49.350;19.386;2023-06-22T10:28:13;11.43;;;6.55;;
21458;SDS011;10891;49.350;19.386;2023-06-22T10:30:40;8.85;;;6.97;;
21458;SDS011;10891;49.350;19.386;2023-06-22T10:33:07;8.90;;;7.00;;
21458;SDS011;10891;49.350;19.386;2023-06-22T10:35:35;12.80;;;7.65;;
21458;SDS011;10891;49.350;19.386;2023-06-22T10:38:03;10.43;;;6.55;;
21458;SDS011;10891;49.350;19.386;2023-06-22T10:40:31;10.30;;;7.30;;
21458;SDS011;10891;49.350;19.386;2023-06-22T10:42:58;13.60;;;7.05;;
21458;SDS011;10891;49.350;19.386;2023-06-22T10:45:25;9.18;;;7.07;;
21458;SDS011;10891;49.350;19.386;2023-06-22T10:47:53;10.85;;;6.75;;
21458;SDS011;10891;49.350;19.386;2023-06-22T10:50:20;10.65;;;7.20;;
21458;SDS011;10891;49.350;19.386;2023-06-22T10:52:50;11.40;;;7.10;;
21458;SDS011;10891;49.350;19.386;2023-06-22T10:55:17;10.38;;;6.20;;
21458;SDS011;10891;49.350;19.386;2023-06-22T10:57:44;7.78;;;5.95;;
21458;SDS011;10891;49.350;19.386;2023-06-22T11:00:12;8.90;;;6.53;;
21458;SDS011;10891;49.350;19.386;2023-06-22T11:02:40;12.85;;;5.80;;
21458;SDS011;10891;49.350;19.386;2023-06-22T11:05:07;9.40;;;6.18;;
21458;SDS011;10891;49.350;19.386;2023-06-22T11:07:35;7.40;;;5.75;;
21458;SDS011;10891;49.350;19.386;2023-06-22T11:10:04;7.47;;;5.85;;
21458;SDS011;10891;49.350;19.386;2023-06-22T11:12:32;8.40;;;6.15;;
21458;SDS011;10891;49.350;19.386;2023-06-22T11:14:59;10.10;;;6.28;;
21458;SDS011;10891;49.350;19.386;2023-06-22T11:17:26;11.40;;;6.32;;
21458;SDS011;10891;49.350;19.386;2023-06-22T11:19:53;11.18;;;6.45;;
21458;SDS011;10891;49.350;19.386;2023-06-22T11:22:20;8.98;;;6.60;;
21458;SDS011;10891;49.350;19.386;2023-06-22T11:24:47;9.90;;;6.45;;
21458;SDS011;10891;49.350;19.386;2023-06-22T11:27:16;13.07;;;7.05;;
21458;SDS011;10891;49.350;19.386;2023-06-22T11:29:43;12.35;;;6.82;;
21458;SDS011;10891;49.350;19.386;2023-06-22T11:32:10;12.40;;;6.60;;
21458;SDS011;10891;49.350;19.386;2023-06-22T11:34:37;13.32;;;6.70;;
21458;SDS011;10891;49.350;19.386;2023-06-22T11:37:05;10.40;;;6.60;;
21458;SDS011;10891;49.350;19.386;2023-06-22T11:39:32;9.20;;;6.18;;
21458;SDS011;10891;49.350;19.386;2023-06-22T11:41:59;14.85;;;6.93;;
21458;SDS011;10891;49.350;19.386;2023-06-22T11:44:27;8.75;;;6.75;;
21458;SDS011;10891;49.350;19.386;2023-06-22T11:46:54;10.18;;;6.82;;
21458;SDS011;10891;49.350;19.386;2023-06-22T11:49:21;9.90;;;7.32;;
21458;SDS011;10891;49.350;19.386;2023-06-22T11:51:48;10.55;;;7.80;;
21458;SDS011;10891;49.350;19.386;2023-06-22T11:54:15;9.93;;;7.78;;
21458;SDS011;10891;49.350;19.386;2023-06-22T11:56:42;12.23;;;7.45;;
21458;SDS011;10891;49.350;19.386;2023-06-22T11:59:09;9.45;;;7.55;;
21458;SDS011;10891;49.350;19.386;2023-06-22T12:01:37;11.40;;;7.95;;
21458;SDS011;10891;49.350;19.386;2023-06-22T12:04:04;16.15;;;8.23;;
21458;SDS011;10891;49.350;19.386;2023-06-22T12:06:31;12.27;;;8.35;;
21458;SDS011;10891;49.350;19.386;2023-06-22T12:09:00;15.35;;;8.15;;
21458;SDS011;10891;49.350;19.386;2023-06-22T12:11:28;10.85;;;8.23;;
21458;SDS011;10891;49.350;19.386;2023-06-22T12:13:54;14.27;;;7.95;;
21458;SDS011;10891;49.350;19.386;2023-06-22T12:16:22;8.75;;;7.72;;
21458;SDS011;10891;49.350;19.386;2023-06-22T12:18:51;12.73;;;8.40;;
21458;SDS011;10891;49.350;19.386;2023-06-22T12:21:20;19.42;;;8.43;;
21458;SDS011;10891;49.350;19.386;2023-06-22T12:23:47;12.27;;;8.60;;
21458;SDS011;10891;49.350;19.386;2023-06-22T12:26:14;12.48;;;7.65;;
21458;SDS011;10891;49.350;19.386;2023-06-22T12:28:42;13.05;;;8.40;;
21458;SDS011;10891;49.350;19.386;2023-06-22T12:31:09;13.70;;;8.38;;
21458;SDS011;10891;49.350;19.386;2023-06-22T12:33:36;11.73;;;8.25;;
21458;SDS011;10891;49.350;19.386;2023-06-22T12:36:04;11.07;;;7.95;;
21458;SDS011;10891;49.350;19.386;2023-06-22T12:38:31;11.93;;;7.90;;
21458;SDS011;10891;49.350;19.386;2023-06-22T12:40:58;11.50;;;8.43;;
21458;SDS011;10891;49.350;19.386;2023-06-22T12:43:25;10.88;;;7.95;;
21458;SDS011;10891;49.350;19.386;2023-06-22T12:45:52;12.60;;;8.00;;
21458;SDS011;10891;49.350;19.386;2023-06-22T12:48:19;10.60;;;7.65;;
21458;SDS011;10891;49.350;19.386;2023-06-22T12:50:49;11.90;;;8.23;;
21458;SDS011;10891;49.350;19.386;2023-06-22T12:53:17;14.05;;;7.82;;
21458;SDS011;10891;49.350;19.386;2023-06-22T12:55:44;12.30;;;7.43;;
21458;SDS011;10891;49.350;19.386;2023-06-22T12:58:11;12.07;;;7.90;;
21458;SDS011;10891;49.350;19.386;2023-06-22T13:00:38;14.43;;;7.20;;
21458;SDS011;10891;49.350;19.386;2023-06-22T13:03:05;9.63;;;7.10;;
21458;SDS011;10891;49.350;19.386;2023-06-22T13:05:32;9.13;;;7.38;;
21458;SDS011;10891;49.350;19.386;2023-06-22T13:08:01;10.95;;;7.13;;
21458;SDS011;10891;49.350;19.386;2023-06-22T13:10:30;9.25;;;7.10;;
21458;SDS011;10891;49.350;19.386;2023-06-22T13:12:59;9.70;;;7.00;;
21458;SDS011;10891;49.350;19.386;2023-06-22T13:15:27;11.85;;;7.53;;
21458;SDS011;10891;49.350;19.386;2023-06-22T13:17:55;10.55;;;7.38;;
21458;SDS011;10891;49.350;19.386;2023-06-22T13:20:22;9.65;;;7.07;;
21458;SDS011;10891;49.350;19.386;2023-06-22T13:22:49;10.35;;;7.32;;
21458;SDS011;10891;49.350;19.386;2023-06-22T13:25:16;10.27;;;7.40;;
21458;SDS011;10891;49.350;19.386;2023-06-22T13:27:46;12.18;;;7.40;;
21458;SDS011;10891;49.350;19.386;2023-06-22T13:30:13;12.10;;;7.18;;
21458;SDS011;10891;49.350;19.386;2023-06-22T13:32:40;13.98;;;7.50;;
21458;SDS011;10891;49.350;19.386;2023-06-22T13:35:08;8.32;;;7.20;;
21458;SDS011;10891;49.350;19.386;2023-06-22T13:37:35;14.30;;;6.85;;
21458;SDS011;10891;49.350;19.386;2023-06-22T13:40:03;10.20;;;6.68;;
21458;SDS011;10891;49.350;19.386;2023-06-22T13:42:31;9.93;;;6.85;;
21458;SDS011;10891;49.350;19.386;2023-06-22T13:45:00;11.85;;;7.40;;
21458;SDS011;10891;49.350;19.386;2023-06-22T13:47:27;14.02;;;7.70;;
21458;SDS011;10891;49.350;19.386;2023-06-22T13:49:55;19.77;;;8.00;;
21458;SDS011;10891;49.350;19.386;2023-06-22T13:52:22;12.05;;;7.38;;
21458;SDS011;10891;49.350;19.386;2023-06-22T13:54:49;11.95;;;7.65;;
21458;SDS011;10891;49.350;19.386;2023-06-22T13:57:16;14.45;;;8.13;;
21458;SDS011;10891;49.350;19.386;2023-06-22T13:59:43;11.52;;;8.00;;
21458;SDS011;10891;49.350;19.386;2023-06-22T14:02:11;11.77;;;8.90;;
21458;SDS011;10891;49.350;19.386;2023-06-22T14:04:38;11.95;;;8.70;;
21458;SDS011;10891;49.350;19.386;2023-06-22T14:07:05;14.30;;;7.60;;
21458;SDS011;10891;49.350;19.386;2023-06-22T14:09:32;11.70;;;8.05;;
21458;SDS011;10891;49.350;19.386;2023-06-22T14:12:02;14.88;;;8.48;;
21458;SDS011;10891;49.350;19.386;2023-06-22T14:14:30;13.52;;;8.32;;
21458;SDS011;10891;49.350;19.386;2023-06-22T14:16:58;11.23;;;8.48;;
21458;SDS011;10891;49.350;19.386;2023-06-22T14:19:26;13.65;;;8.43;;
21458;SDS011;10891;49.350;19.386;2023-06-22T14:21:53;12.57;;;7.82;;
21458;SDS011;10891;49.350;19.386;2023-06-22T14:24:20;11.77;;;8.07;;
21458;SDS011;10891;49.350;19.386;2023-06-22T14:26:47;18.08;;;8.32;;
21458;SDS011;10891;49.350;19.386;2023-06-22T14:29:14;13.32;;;8.27;;